createdAt,value
2018-01-11T00:00:21.794Z,14.40
2018-01-11T00:01:21.803Z,14.30
2018-01-11T00:02:21.797Z,14.60
2018-01-11T00:03:21.792Z,14.10
2018-01-11T00:04:21.833Z,14.30
2018-01-11T00:05:21.839Z,15.20
2018-01-11T00:06:21.811Z,13.80
2018-01-11T00:07:21.817Z,14.60
2018-01-11T00:08:21.814Z,16.90
2018-01-11T00:09:21.818Z,14.30
2018-01-11T00:10:21.806Z,14.20
2018-01-11T00:11:21.826Z,13.70
2018-01-11T00:12:21.813Z,13.80
2018-01-11T00:13:21.852Z,15.30
2018-01-11T00:14:21.819Z,14.30
2018-01-11T00:15:21.823Z,14.30
2018-01-11T00:16:21.833Z,14.60
2018-01-11T00:17:21.878Z,16.10
2018-01-11T00:18:21.816Z,14.70
2018-01-11T00:19:21.820Z,15.20
2018-01-11T00:20:21.944Z,15.20
2018-01-11T00:21:21.952Z,16.40
2018-01-11T00:22:21.835Z,14.60
2018-01-11T00:23:21.863Z,17.10
2018-01-11T00:24:21.837Z,15.00
2018-01-11T00:25:21.860Z,15.90
2018-01-11T00:26:21.887Z,15.00
2018-01-11T00:27:21.828Z,15.40
2018-01-11T00:28:21.831Z,14.60
2018-01-11T00:29:21.837Z,15.00
2018-01-11T00:30:21.838Z,16.40
2018-01-11T00:31:21.871Z,14.70
2018-01-11T00:32:21.865Z,14.00
2018-01-11T00:33:21.876Z,15.00
2018-01-11T00:34:21.866Z,15.30
2018-01-11T00:35:21.842Z,15.50
2018-01-11T00:36:21.877Z,14.80
2018-01-11T00:37:21.835Z,14.00
2018-01-11T00:38:21.833Z,14.60
2018-01-11T00:39:21.854Z,15.70
2018-01-11T00:40:21.887Z,14.80
2018-01-11T00:41:21.844Z,15.00
2018-01-11T00:42:21.838Z,15.30
2018-01-11T00:43:21.905Z,14.80
2018-01-11T00:44:21.857Z,15.50
2018-01-11T00:45:21.855Z,15.00
2018-01-11T00:46:21.848Z,16.30
2018-01-11T00:47:21.876Z,15.40
2018-01-11T00:48:21.904Z,15.80
2018-01-11T00:49:21.895Z,15.00
2018-01-11T00:50:21.893Z,15.90
2018-01-11T00:51:21.888Z,14.50
2018-01-11T00:52:21.849Z,17.10
2018-01-11T00:53:21.854Z,14.90
2018-01-11T00:54:21.850Z,14.40
2018-01-11T00:55:21.860Z,16.30
2018-01-11T00:56:21.863Z,16.60
2018-01-11T00:57:22.501Z,15.90
2018-01-11T00:58:21.872Z,16.00
2018-01-11T00:59:21.872Z,17.30
2018-01-11T01:00:21.869Z,15.80
2018-01-11T01:01:21.867Z,16.80
2018-01-11T01:02:21.874Z,16.30
2018-01-11T01:03:21.872Z,16.70
2018-01-11T01:04:21.906Z,15.10
2018-01-11T01:05:21.878Z,15.50
2018-01-11T01:06:22.494Z,15.80
2018-01-11T01:07:21.893Z,15.90
2018-01-11T01:08:21.901Z,15.90
2018-01-11T01:09:21.916Z,18.40
2018-01-11T01:10:21.879Z,17.80
2018-01-11T01:11:21.890Z,17.00
2018-01-11T01:12:21.903Z,16.50
2018-01-11T01:13:21.882Z,16.20
2018-01-11T01:14:21.894Z,16.60
2018-01-11T01:15:21.917Z,15.80
2018-01-11T01:16:21.931Z,16.70
2018-01-11T01:17:21.892Z,16.10
2018-01-11T01:18:21.909Z,16.60
2018-01-11T01:19:21.896Z,17.00
2018-01-11T01:20:21.896Z,15.90
2018-01-11T01:21:21.895Z,15.60
2018-01-11T01:22:21.897Z,16.70
2018-01-11T01:23:21.923Z,15.80
2018-01-11T01:24:21.905Z,17.40
2018-01-11T01:25:21.925Z,15.80
2018-01-11T01:26:21.929Z,15.70
2018-01-11T01:27:21.952Z,17.10
2018-01-11T01:28:21.927Z,15.20
2018-01-11T01:29:21.930Z,15.40
2018-01-11T01:30:21.944Z,16.20
2018-01-11T01:31:21.905Z,15.40
2018-01-11T01:32:21.921Z,16.10
2018-01-11T01:33:21.914Z,15.30
2018-01-11T01:34:21.989Z,16.10
2018-01-11T01:35:21.932Z,16.90
2018-01-11T01:36:21.943Z,16.10
2018-01-11T01:37:21.933Z,18.70
2018-01-11T01:38:21.971Z,16.60
2018-01-11T01:39:21.917Z,17.30
2018-01-11T01:40:21.967Z,16.40
2018-01-11T01:41:21.917Z,16.20
2018-01-11T01:42:21.953Z,18.70
2018-01-11T01:43:21.953Z,17.80
2018-01-11T01:44:21.981Z,16.80
2018-01-11T01:45:21.935Z,15.80
2018-01-11T01:46:21.931Z,15.80
2018-01-11T01:47:21.949Z,18.80
2018-01-11T01:48:21.917Z,19.80
2018-01-11T01:49:21.927Z,16.70
2018-01-11T01:50:21.940Z,17.60
2018-01-11T01:51:21.942Z,17.20
2018-01-11T01:52:21.934Z,15.90
2018-01-11T01:53:21.945Z,15.70
2018-01-11T01:54:21.928Z,17.30
2018-01-11T01:55:21.982Z,16.40
2018-01-11T01:56:21.963Z,16.00
2018-01-11T01:57:21.960Z,16.60
2018-01-11T01:58:21.975Z,16.30
2018-01-11T01:59:21.972Z,15.50
2018-01-11T02:00:21.945Z,16.60
2018-01-11T02:01:21.970Z,17.00
2018-01-11T02:02:21.973Z,17.20
2018-01-11T02:03:21.948Z,16.50
2018-01-11T02:04:21.957Z,19.30
2018-01-11T02:05:21.941Z,17.30
2018-01-11T02:06:21.950Z,17.10
2018-01-11T02:07:21.994Z,17.10
2018-01-11T02:08:21.998Z,17.40
2018-01-11T02:09:22.013Z,18.30
2018-01-11T02:10:21.954Z,16.70
2018-01-11T02:11:22.040Z,17.30
2018-01-11T02:12:21.968Z,16.30
2018-01-11T02:13:21.997Z,19.50
2018-01-11T02:14:21.999Z,16.90
2018-01-11T02:15:21.964Z,17.50
2018-01-11T02:16:21.975Z,16.90
2018-01-11T02:17:21.974Z,17.70
2018-01-11T02:18:21.952Z,16.90
2018-01-11T02:19:21.989Z,17.30
2018-01-11T02:20:21.970Z,17.70
2018-01-11T02:21:22.002Z,18.40
2018-01-11T02:22:21.992Z,17.30
2018-01-11T02:23:21.980Z,18.00
2018-01-11T02:24:21.965Z,18.30
2018-01-11T02:25:21.960Z,17.00
2018-01-11T02:26:21.964Z,17.80
2018-01-11T02:27:21.989Z,17.70
2018-01-11T02:28:22.000Z,17.20
2018-01-11T02:29:21.979Z,17.20
2018-01-11T02:30:22.006Z,17.10
2018-01-11T02:31:21.982Z,18.80
2018-01-11T02:32:21.989Z,19.60
2018-01-11T02:33:22.004Z,16.50
2018-01-11T02:34:21.973Z,17.40
2018-01-11T02:35:22.005Z,17.90
2018-01-11T02:36:22.008Z,19.10
2018-01-11T02:37:21.975Z,18.40
2018-01-11T02:38:21.990Z,17.40
2018-01-11T02:39:22.001Z,17.30
2018-01-11T02:40:21.997Z,16.90
2018-01-11T02:41:21.979Z,17.20
2018-01-11T02:42:22.022Z,18.00
2018-01-11T02:43:22.016Z,18.10
2018-01-11T02:44:22.521Z,18.50
2018-01-11T02:45:22.030Z,18.40
2018-01-11T02:46:22.025Z,19.70
2018-01-11T02:47:22.038Z,17.40
2018-01-11T02:48:22.006Z,18.20
2018-01-11T02:49:22.005Z,21.60
2018-01-11T02:50:22.012Z,19.90
2018-01-11T02:51:22.027Z,18.50
2018-01-11T02:52:22.060Z,17.50
2018-01-11T02:53:22.024Z,17.30
2018-01-11T02:54:22.008Z,17.30
2018-01-11T02:55:22.024Z,18.20
2018-01-11T02:56:22.031Z,19.60
2018-01-11T02:57:22.008Z,18.00
2018-01-11T02:58:22.036Z,18.70
2018-01-11T02:59:22.008Z,18.60
2018-01-11T03:00:22.074Z,17.60
2018-01-11T03:01:22.092Z,19.80
2018-01-11T03:02:22.017Z,17.30
2018-01-11T03:03:22.028Z,19.00
2018-01-11T03:04:22.008Z,19.10
2018-01-11T03:05:22.036Z,17.30
2018-01-11T03:06:22.044Z,18.80
2018-01-11T03:07:22.036Z,20.70
2018-01-11T03:08:22.028Z,18.30
2018-01-11T03:09:22.043Z,18.30
2018-01-11T03:10:22.066Z,19.00
2018-01-11T03:11:22.060Z,21.90
2018-01-11T03:12:22.050Z,20.80
2018-01-11T03:13:22.024Z,19.10
2018-01-11T03:14:22.084Z,19.70
2018-01-11T03:15:22.024Z,18.70
2018-01-11T03:16:22.033Z,20.80
2018-01-11T03:17:22.083Z,20.60
2018-01-11T03:18:22.037Z,18.60
2018-01-11T03:19:22.022Z,20.90
2018-01-11T03:20:22.055Z,18.30
2018-01-11T03:21:22.530Z,17.60
2018-01-11T03:22:22.064Z,18.80
2018-01-11T03:23:22.142Z,21.30
2018-01-11T03:24:22.075Z,17.90
2018-01-11T03:25:22.186Z,18.80
2018-01-11T03:26:22.077Z,20.20
2018-01-11T03:27:22.089Z,21.50
2018-01-11T03:28:22.103Z,21.00
2018-01-11T03:29:22.059Z,19.70
2018-01-11T03:30:22.111Z,19.60
2018-01-11T03:31:22.105Z,18.50
2018-01-11T03:32:22.052Z,19.00
2018-01-11T03:33:22.039Z,19.30
2018-01-11T03:34:22.089Z,21.40
2018-01-11T03:35:22.055Z,18.50
2018-01-11T03:36:22.050Z,19.10
2018-01-11T03:37:22.068Z,20.00
2018-01-11T03:38:22.095Z,19.50
2018-01-11T03:39:22.138Z,19.20
2018-01-11T03:40:22.081Z,20.40
2018-01-11T03:41:22.064Z,19.40
2018-01-11T03:42:22.115Z,19.60
2018-01-11T03:43:22.072Z,20.10
2018-01-11T03:44:22.110Z,22.90
2018-01-11T03:45:22.108Z,21.50
2018-01-11T03:46:22.079Z,21.40
2018-01-11T03:47:22.099Z,20.90
2018-01-11T03:48:22.083Z,21.30
2018-01-11T03:49:22.075Z,20.40
2018-01-11T03:50:22.072Z,20.00
2018-01-11T03:51:22.084Z,19.70
2018-01-11T03:52:22.112Z,19.90
2018-01-11T03:53:22.078Z,20.90
2018-01-11T03:54:22.104Z,19.60
2018-01-11T03:55:22.103Z,20.40
2018-01-11T03:56:23.052Z,20.10
2018-01-11T03:57:22.086Z,19.90
2018-01-11T03:58:22.146Z,21.70
2018-01-11T03:59:22.084Z,19.50
2018-01-11T04:00:22.110Z,18.80
2018-01-11T04:01:22.097Z,20.10
2018-01-11T04:02:22.105Z,19.70
2018-01-11T04:03:22.120Z,19.80
2018-01-11T04:04:22.116Z,19.30
2018-01-11T04:05:22.087Z,19.40
2018-01-11T04:06:22.132Z,20.80
2018-01-11T04:07:22.090Z,22.50
2018-01-11T04:08:22.101Z,20.80
2018-01-11T04:09:22.099Z,20.20
2018-01-11T04:10:22.097Z,21.70
2018-01-11T04:11:22.116Z,18.80
2018-01-11T04:12:22.098Z,20.50
2018-01-11T04:13:22.103Z,20.40
2018-01-11T04:14:22.103Z,19.80
2018-01-11T04:15:22.101Z,20.20
2018-01-11T04:16:22.099Z,19.30
2018-01-11T04:17:22.106Z,18.80
2018-01-11T04:18:22.142Z,20.80
2018-01-11T04:19:22.120Z,19.60
2018-01-11T04:20:22.121Z,19.90
2018-01-11T04:21:22.160Z,20.50
2018-01-11T04:22:22.146Z,20.60
2018-01-11T04:23:22.167Z,21.00
2018-01-11T04:24:22.162Z,23.20
2018-01-11T04:25:22.119Z,20.20
2018-01-11T04:26:22.138Z,20.40
2018-01-11T04:27:22.125Z,21.40
2018-01-11T04:28:22.130Z,21.50
2018-01-11T04:29:22.125Z,20.80
2018-01-11T04:30:22.166Z,20.70
2018-01-11T04:31:22.185Z,21.10
2018-01-11T04:32:22.150Z,20.60
2018-01-11T04:33:22.135Z,20.40
2018-01-11T04:34:22.154Z,20.40
2018-01-11T04:35:22.162Z,20.20
2018-01-11T04:36:22.139Z,20.90
2018-01-11T04:37:22.161Z,20.70
2018-01-11T04:38:22.165Z,22.60
2018-01-11T04:39:22.145Z,20.80
2018-01-11T04:40:22.171Z,21.30
2018-01-11T04:41:22.195Z,20.00
2018-01-11T04:42:22.138Z,20.80
2018-01-11T04:43:22.168Z,21.60
2018-01-11T04:44:22.142Z,19.90
2018-01-11T04:45:22.163Z,20.30
2018-01-11T04:46:22.223Z,21.70
2018-01-11T04:47:22.149Z,20.30
2018-01-11T04:48:22.174Z,21.20
2018-01-11T04:49:22.165Z,21.70
2018-01-11T04:50:22.159Z,19.90
2018-01-11T04:51:22.179Z,20.80
2018-01-11T04:52:22.184Z,20.80
2018-01-11T04:53:22.183Z,20.70
2018-01-11T04:54:22.149Z,21.80
2018-01-11T04:55:22.181Z,20.80
2018-01-11T04:56:22.175Z,22.00
2018-01-11T04:57:22.153Z,20.00
2018-01-11T04:58:22.180Z,19.40
2018-01-11T04:59:22.171Z,21.70
2018-01-11T05:00:22.206Z,22.20
2018-01-11T05:01:22.201Z,20.70
2018-01-11T05:02:22.178Z,23.20
2018-01-11T05:03:22.183Z,19.30
2018-01-11T05:04:22.177Z,21.30
2018-01-11T05:05:22.210Z,21.00
2018-01-11T05:06:22.164Z,21.60
2018-01-11T05:07:22.180Z,22.50
2018-01-11T05:08:22.178Z,22.90
2018-01-11T05:09:22.180Z,20.40
2018-01-11T05:10:22.334Z,22.30
2018-01-11T05:11:22.197Z,21.10
2018-01-11T05:12:22.206Z,23.70
2018-01-11T05:13:22.188Z,21.50
2018-01-11T05:14:22.202Z,22.70
2018-01-11T05:15:22.182Z,22.50
2018-01-11T05:16:22.258Z,23.20
2018-01-11T05:17:22.187Z,21.30
2018-01-11T05:18:22.223Z,20.00
2018-01-11T05:19:22.191Z,21.40
2018-01-11T05:20:22.194Z,21.80
2018-01-11T05:21:22.197Z,20.50
2018-01-11T05:22:22.214Z,22.60
2018-01-11T05:23:22.220Z,23.00
2018-01-11T05:24:22.194Z,21.60
2018-01-11T05:25:22.217Z,19.70
2018-01-11T05:26:22.220Z,19.90
2018-01-11T05:27:22.235Z,20.40
2018-01-11T05:28:22.212Z,20.60
2018-01-11T05:29:22.217Z,22.70
2018-01-11T05:30:22.240Z,22.10
2018-01-11T05:31:22.218Z,21.50
2018-01-11T05:32:22.239Z,22.90
2018-01-11T05:33:22.210Z,21.40
2018-01-11T05:34:22.209Z,21.50
2018-01-11T05:35:22.244Z,21.00
2018-01-11T05:36:22.213Z,21.10
2018-01-11T05:37:22.220Z,21.50
2018-01-11T05:38:22.216Z,20.10
2018-01-11T05:39:22.293Z,21.10
2018-01-11T05:40:22.277Z,20.30
2018-01-11T05:41:22.239Z,20.40
2018-01-11T05:42:22.217Z,21.20
2018-01-11T05:43:22.261Z,20.10
2018-01-11T05:44:22.252Z,22.40
2018-01-11T05:45:22.225Z,20.80
2018-01-11T05:46:22.260Z,21.10
2018-01-11T05:47:22.248Z,21.10
2018-01-11T05:48:22.258Z,20.70
2018-01-11T05:49:22.224Z,22.40
2018-01-11T05:50:22.292Z,22.00
2018-01-11T05:51:22.231Z,22.10
2018-01-11T05:52:22.240Z,20.50
2018-01-11T05:53:22.232Z,21.10
2018-01-11T05:54:22.229Z,20.70
2018-01-11T05:55:22.251Z,23.90
2018-01-11T05:56:22.237Z,20.10
2018-01-11T05:57:23.067Z,24.40
2018-01-11T05:58:22.240Z,20.70
2018-01-11T05:59:22.264Z,23.40
2018-01-11T06:00:22.240Z,21.80
2018-01-11T06:01:22.262Z,22.30
2018-01-11T06:02:22.291Z,21.50
2018-01-11T06:03:22.273Z,22.30
2018-01-11T06:04:22.259Z,20.70
2018-01-11T06:05:22.251Z,21.40
2018-01-11T06:06:22.248Z,21.20
2018-01-11T06:07:22.255Z,21.30
2018-01-11T06:08:22.305Z,20.70
2018-01-11T06:09:22.266Z,20.90
2018-01-11T06:10:22.296Z,19.10
2018-01-11T06:11:22.280Z,25.00
2018-01-11T06:12:22.262Z,20.90
2018-01-11T06:13:22.264Z,23.20
2018-01-11T06:14:22.273Z,22.10
2018-01-11T06:15:22.317Z,22.20
2018-01-11T06:16:22.284Z,20.90
2018-01-11T06:17:22.306Z,21.70
2018-01-11T06:18:22.302Z,21.90
2018-01-11T06:19:22.269Z,22.20
2018-01-11T06:20:22.311Z,22.20
2018-01-11T06:21:22.277Z,22.80
2018-01-11T06:22:22.286Z,24.40
2018-01-11T06:23:22.279Z,23.00
2018-01-11T06:24:22.322Z,21.20
2018-01-11T06:25:22.285Z,21.50
2018-01-11T06:26:22.328Z,22.30
2018-01-11T06:27:22.298Z,22.70
2018-01-11T06:28:23.088Z,21.80
2018-01-11T06:29:22.280Z,20.80
2018-01-11T06:30:22.453Z,21.00
2018-01-11T06:31:22.312Z,22.30
2018-01-11T06:32:22.283Z,22.30
2018-01-11T06:33:22.337Z,22.70
2018-01-11T06:34:23.086Z,22.10
2018-01-11T06:35:22.397Z,22.00
2018-01-11T06:36:22.351Z,22.40
2018-01-11T06:37:22.306Z,22.00
2018-01-11T06:38:22.324Z,23.30
2018-01-11T06:39:22.293Z,23.90
2018-01-11T06:40:22.335Z,24.00
2018-01-11T06:41:22.306Z,24.10
2018-01-11T06:42:22.337Z,21.80
2018-01-11T06:43:22.335Z,22.30
2018-01-11T06:44:22.303Z,22.50
2018-01-11T06:45:22.313Z,22.30
2018-01-11T06:46:22.362Z,22.50
2018-01-11T06:47:22.308Z,23.00
2018-01-11T06:48:22.326Z,26.30
2018-01-11T06:49:22.317Z,22.90
2018-01-11T06:50:22.359Z,22.80
2018-01-11T06:51:22.328Z,23.30
2018-01-11T06:52:22.394Z,25.90
2018-01-11T06:53:22.358Z,22.90
2018-01-11T06:54:22.356Z,22.70
2018-01-11T06:55:22.367Z,22.60
2018-01-11T06:56:22.311Z,22.90
2018-01-11T06:57:22.468Z,23.00
2018-01-11T06:58:22.419Z,24.20
2018-01-11T06:59:22.320Z,24.50
2018-01-11T07:00:22.332Z,23.20
2018-01-11T07:01:22.454Z,23.60
2018-01-11T07:02:22.387Z,23.00
2018-01-11T07:03:22.344Z,22.50
2018-01-11T07:04:22.335Z,24.20
2018-01-11T07:05:22.421Z,23.40
2018-01-11T07:06:22.349Z,22.20
2018-01-11T07:07:22.371Z,23.70
2018-01-11T07:08:22.340Z,23.20
2018-01-11T07:09:22.368Z,23.80
2018-01-11T07:10:22.452Z,22.00
2018-01-11T07:11:22.362Z,21.80
2018-01-11T07:12:22.372Z,21.80
2018-01-11T07:13:22.390Z,24.00
2018-01-11T07:14:22.399Z,22.00
2018-01-11T07:15:22.341Z,25.00
2018-01-11T07:16:22.478Z,24.00
2018-01-11T07:17:22.345Z,23.60
2018-01-11T07:18:22.405Z,23.70
2018-01-11T07:19:22.397Z,23.40
2018-01-11T07:20:22.393Z,22.30
2018-01-11T07:21:22.373Z,23.10
2018-01-11T07:22:22.349Z,22.40
2018-01-11T07:23:22.391Z,23.10
2018-01-11T07:24:22.361Z,22.50
2018-01-11T07:25:22.371Z,23.80
2018-01-11T07:26:22.403Z,22.00
2018-01-11T07:27:22.387Z,23.50
2018-01-11T07:28:22.409Z,22.40
2018-01-11T07:29:22.395Z,23.40
2018-01-11T07:30:22.429Z,23.70
2018-01-11T07:31:22.430Z,23.80
2018-01-11T07:32:22.413Z,23.10
2018-01-11T07:33:22.398Z,22.90
2018-01-11T07:34:22.498Z,22.80
2018-01-11T07:35:22.420Z,23.80
2018-01-11T07:36:22.532Z,26.70
2018-01-11T07:37:22.386Z,23.70
2018-01-11T07:38:22.395Z,25.40
2018-01-11T07:39:22.437Z,25.20
2018-01-11T07:40:22.396Z,23.80
2018-01-11T07:41:22.424Z,27.70
2018-01-11T07:42:22.475Z,25.00
2018-01-11T07:43:22.400Z,27.30
2018-01-11T07:44:23.105Z,24.50
2018-01-11T07:45:22.447Z,25.30
2018-01-11T07:46:22.397Z,24.70
2018-01-11T07:47:22.452Z,25.50
2018-01-11T07:48:22.461Z,26.60
2018-01-11T07:49:29.583Z,25.30
2018-01-11T07:50:22.490Z,25.90
2018-01-11T07:51:22.453Z,25.60
2018-01-11T07:52:22.461Z,26.90
2018-01-11T07:53:22.495Z,25.60
2018-01-11T07:54:23.101Z,25.60
2018-01-11T07:55:22.465Z,24.60
2018-01-11T07:56:22.434Z,24.70
2018-01-11T07:57:22.432Z,23.80
2018-01-11T07:58:22.420Z,23.70
2018-01-11T07:59:22.448Z,23.10
2018-01-11T08:00:22.889Z,22.20
2018-01-11T08:01:22.457Z,23.10
2018-01-11T08:02:22.430Z,23.10
2018-01-11T08:03:22.467Z,22.50
2018-01-11T08:04:22.520Z,23.10
2018-01-11T08:05:22.526Z,22.30
2018-01-11T08:06:22.437Z,23.00
2018-01-11T08:07:22.451Z,22.30
2018-01-11T08:08:22.429Z,22.50
2018-01-11T08:09:23.104Z,22.80
2018-01-11T08:10:22.482Z,24.70
2018-01-11T08:11:22.490Z,24.20
2018-01-11T08:12:22.474Z,28.10
2018-01-11T08:13:22.450Z,25.00
2018-01-11T08:14:22.489Z,26.20
2018-01-11T08:15:23.109Z,25.40
2018-01-11T08:16:22.449Z,28.30
2018-01-11T08:17:22.555Z,24.10
2018-01-11T08:18:23.106Z,25.30
2018-01-11T08:19:22.462Z,24.20
2018-01-11T08:20:23.140Z,27.00
2018-01-11T08:21:22.547Z,24.80
2018-01-11T08:22:22.514Z,23.80
2018-01-11T08:23:22.479Z,23.50
2018-01-11T08:24:22.574Z,23.70
2018-01-11T08:25:22.560Z,25.10
2018-01-11T08:26:23.190Z,24.40
2018-01-11T08:27:22.524Z,24.50
2018-01-11T08:28:22.534Z,25.60
2018-01-11T08:29:22.508Z,25.80
2018-01-11T08:30:23.297Z,23.20
2018-01-11T08:31:24.113Z,22.50
2018-01-11T08:32:22.520Z,23.10
2018-01-11T08:33:22.800Z,22.30
2018-01-11T08:34:23.374Z,23.20
2018-01-11T08:35:22.513Z,22.60
2018-01-11T08:36:45.088Z,24.10
2018-01-11T08:37:22.499Z,24.90
2018-01-11T08:38:37.294Z,23.30
2018-01-11T08:39:28.779Z,24.70
2018-01-11T08:40:22.631Z,25.50
2018-01-11T08:43:08.959Z,24.80
2018-01-11T08:44:06.996Z,25.30
2018-01-11T08:45:06.868Z,23.90
2018-01-11T08:46:07.047Z,24.70
2018-01-11T08:47:08.050Z,26.10
2018-01-11T08:48:09.161Z,24.50
2018-01-11T08:49:06.975Z,23.20
2018-01-11T08:50:06.974Z,26.20
2018-01-11T08:51:06.858Z,23.50
2018-01-11T08:52:06.886Z,24.50
2018-01-11T08:53:06.935Z,23.40
2018-01-11T08:54:07.055Z,24.50
2018-01-11T08:55:06.869Z,22.30
2018-01-11T08:56:06.959Z,22.60
2018-01-11T08:57:06.899Z,23.30
2018-01-11T08:58:07.226Z,22.30
2018-01-11T08:59:07.354Z,21.70
2018-01-11T09:00:06.908Z,22.30
2018-01-11T09:01:06.912Z,22.30
2018-01-11T09:02:06.944Z,22.70
2018-01-11T09:03:06.913Z,23.00
2018-01-11T09:04:07.014Z,22.90
2018-01-11T09:05:06.908Z,22.60
2018-01-11T09:06:06.991Z,21.70
2018-01-11T09:07:06.883Z,22.00
2018-01-11T09:08:06.888Z,21.80
2018-01-11T09:09:06.914Z,21.50
2018-01-11T09:10:06.901Z,23.50
2018-01-11T09:11:06.926Z,21.80
2018-01-11T09:12:06.898Z,21.90
2018-01-11T09:13:06.901Z,21.50
2018-01-11T09:14:06.954Z,24.40
2018-01-11T09:15:06.921Z,21.50
2018-01-11T09:16:06.986Z,20.90
2018-01-11T09:17:06.935Z,21.80
2018-01-11T09:18:06.923Z,21.60
2018-01-11T09:19:06.928Z,21.60
2018-01-11T09:20:06.928Z,21.50
2018-01-11T09:21:07.091Z,21.30
2018-01-11T09:22:06.953Z,22.70
2018-01-11T09:23:06.945Z,20.60
2018-01-11T09:24:06.943Z,20.50
2018-01-11T09:25:06.964Z,22.00
2018-01-11T09:26:06.971Z,21.30
2018-01-11T09:27:06.961Z,20.90
2018-01-11T09:28:07.016Z,19.80
2018-01-11T09:29:06.955Z,20.40
2018-01-11T09:30:06.980Z,20.40
2018-01-11T09:31:07.005Z,19.80
2018-01-11T09:32:06.956Z,20.80
2018-01-11T09:33:06.991Z,20.30
2018-01-11T09:34:06.968Z,21.10
2018-01-11T09:35:07.018Z,22.80
2018-01-11T09:36:07.014Z,21.70
2018-01-11T09:37:07.045Z,21.70
2018-01-11T09:38:07.124Z,21.80
2018-01-11T09:39:07.016Z,21.10
2018-01-11T09:40:07.007Z,19.80
2018-01-11T09:41:07.015Z,21.10
2018-01-11T09:42:07.118Z,21.20
2018-01-11T09:43:07.575Z,22.50
2018-01-11T09:44:07.135Z,23.00
2018-01-11T09:45:07.174Z,24.00
2018-01-11T09:46:07.037Z,25.30
2018-01-11T09:47:07.123Z,22.50
2018-01-11T09:48:07.320Z,22.50
2018-01-11T09:49:07.157Z,24.00
2018-01-11T09:50:07.134Z,25.20
2018-01-11T09:51:07.145Z,22.70
2018-01-11T09:52:07.067Z,23.90
2018-01-11T09:53:07.136Z,23.60
2018-01-11T09:54:07.176Z,24.00
2018-01-11T09:55:07.081Z,24.00
2018-01-11T09:56:07.094Z,23.00
2018-01-11T09:57:07.152Z,25.40
2018-01-11T09:58:07.174Z,25.60
2018-01-11T09:59:07.497Z,24.00
2018-01-11T10:00:07.129Z,22.60
2018-01-11T10:01:07.116Z,23.90
2018-01-11T10:02:07.207Z,23.60
2018-01-11T10:03:07.999Z,24.00
2018-01-11T10:04:07.468Z,23.40
2018-01-11T10:05:07.516Z,24.70
2018-01-11T10:06:07.160Z,23.80
2018-01-11T10:07:07.237Z,23.40
2018-01-11T10:08:07.145Z,26.30
2018-01-11T10:09:07.225Z,25.10
2018-01-11T10:10:07.164Z,24.70
2018-01-11T10:11:07.225Z,24.40
2018-01-11T10:12:07.203Z,23.90
2018-01-11T10:13:07.144Z,25.30
2018-01-11T10:14:07.146Z,23.90
2018-01-11T10:15:07.148Z,23.30
2018-01-11T10:16:07.198Z,22.70
2018-01-11T10:17:07.198Z,24.30
2018-01-11T10:18:07.243Z,22.80
2018-01-11T10:19:07.209Z,23.30
2018-01-11T10:20:07.170Z,24.40
2018-01-11T10:21:08.116Z,23.50
2018-01-11T10:22:07.187Z,24.40
2018-01-11T10:23:07.211Z,25.50
2018-01-11T10:24:07.257Z,24.00
2018-01-11T10:25:07.281Z,22.20
2018-01-11T10:26:07.222Z,23.90
2018-01-11T10:27:07.194Z,23.50
2018-01-11T10:28:07.318Z,23.80
2018-01-11T10:29:07.198Z,24.00
2018-01-11T10:30:07.211Z,25.30
2018-01-11T10:31:07.222Z,24.60
2018-01-11T10:32:07.270Z,26.40
2018-01-11T10:33:07.302Z,24.90
2018-01-11T10:34:07.237Z,24.70
2018-01-11T10:35:07.251Z,25.10
2018-01-11T10:36:07.246Z,24.40
2018-01-11T10:37:07.267Z,25.40
2018-01-11T10:38:07.240Z,24.30
2018-01-11T10:39:07.251Z,24.90
2018-01-11T10:40:08.127Z,24.10
2018-01-11T10:41:07.249Z,24.00
2018-01-11T10:42:07.328Z,22.70
2018-01-11T10:43:07.251Z,22.50
2018-01-11T10:44:07.311Z,23.40
2018-01-11T10:45:07.324Z,26.40
2018-01-11T10:46:07.337Z,26.00
2018-01-11T10:47:07.302Z,24.60
2018-01-11T10:48:08.127Z,24.30
2018-01-11T10:49:07.305Z,25.50
2018-01-11T10:50:07.350Z,24.70
2018-01-11T10:51:07.307Z,23.80
2018-01-11T10:52:08.135Z,24.90
2018-01-11T10:53:07.320Z,25.00
2018-01-11T10:54:07.294Z,25.30
2018-01-11T10:55:07.294Z,25.00
2018-01-11T10:56:07.342Z,25.10
2018-01-11T10:57:07.364Z,24.30
2018-01-11T10:58:08.230Z,25.70
2018-01-11T10:59:07.372Z,24.80
2018-01-11T11:00:07.304Z,23.90
2018-01-11T11:01:07.314Z,24.50
2018-01-11T11:02:07.359Z,26.10
2018-01-11T11:03:07.336Z,25.40
2018-01-11T11:04:07.380Z,25.90
2018-01-11T11:05:07.358Z,25.90
2018-01-11T11:06:07.357Z,24.40
2018-01-11T11:07:07.387Z,26.20
2018-01-11T11:08:07.346Z,26.30
2018-01-11T11:09:07.341Z,25.50
2018-01-11T11:10:07.344Z,26.10
2018-01-11T11:11:07.363Z,26.00
2018-01-11T11:12:07.392Z,25.80
2018-01-11T11:13:07.352Z,25.90
2018-01-11T11:14:07.357Z,26.30
2018-01-11T11:15:07.363Z,26.20
2018-01-11T11:16:07.797Z,25.50
2018-01-11T11:17:07.396Z,26.50
2018-01-11T11:18:07.391Z,25.70
2018-01-11T11:19:08.153Z,27.00
2018-01-11T11:20:07.381Z,27.60
2018-01-11T11:21:07.393Z,25.80
2018-01-11T11:22:07.386Z,26.00
2018-01-11T11:23:07.401Z,26.00
2018-01-11T11:24:07.400Z,25.70
2018-01-11T11:25:07.430Z,25.90
2018-01-11T11:26:07.424Z,25.70
2018-01-11T11:27:07.432Z,26.20
2018-01-11T11:28:07.460Z,25.60
2018-01-11T11:29:07.466Z,25.00
2018-01-11T11:30:07.480Z,25.40
2018-01-11T11:31:07.634Z,27.20
2018-01-11T11:32:07.521Z,26.50
2018-01-11T11:33:07.510Z,26.10
2018-01-11T11:34:07.742Z,24.90
2018-01-11T11:35:07.499Z,24.10
2018-01-11T11:36:07.536Z,25.20
2018-01-11T11:37:07.432Z,25.40
2018-01-11T11:38:07.506Z,25.40
2018-01-11T11:39:07.506Z,26.30
2018-01-11T11:40:07.451Z,25.60
2018-01-11T11:41:07.638Z,25.60
2018-01-11T11:42:07.468Z,24.70
2018-01-11T11:43:07.551Z,25.00
2018-01-11T11:44:07.550Z,26.20
2018-01-11T11:45:07.562Z,26.30
2018-01-11T11:46:07.542Z,26.00
2018-01-11T11:47:08.412Z,25.20
2018-01-11T11:48:07.636Z,26.60
2018-01-11T11:49:07.483Z,25.80
2018-01-11T11:50:07.502Z,25.30
2018-01-11T11:51:07.557Z,25.60
2018-01-11T11:52:07.615Z,25.40
2018-01-11T11:53:07.543Z,25.80
2018-01-11T11:54:07.519Z,26.30
2018-01-11T11:55:07.501Z,26.90
2018-01-11T11:56:07.646Z,27.20
2018-01-11T11:57:07.510Z,25.60
2018-01-11T11:58:07.539Z,25.60
2018-01-11T11:59:07.588Z,25.60
2018-01-11T12:00:07.502Z,25.50
2018-01-11T12:01:07.506Z,25.80
2018-01-11T12:02:07.570Z,25.90
2018-01-11T12:03:07.526Z,25.30
2018-01-11T12:04:07.594Z,25.10
2018-01-11T12:05:07.612Z,26.50
2018-01-11T12:06:07.518Z,26.30
2018-01-11T12:07:07.554Z,25.80
2018-01-11T12:08:07.525Z,25.10
2018-01-11T12:09:07.548Z,25.90
2018-01-11T12:10:07.539Z,27.40
2018-01-11T12:11:07.547Z,26.40
2018-01-11T12:12:07.585Z,27.70
2018-01-11T12:13:07.605Z,25.20
2018-01-11T12:14:07.608Z,26.90
2018-01-11T12:15:07.605Z,27.00
2018-01-11T12:16:07.638Z,27.40
2018-01-11T12:17:07.666Z,26.00
2018-01-11T12:18:07.568Z,27.90
2018-01-11T12:19:15.946Z,31.20
2018-01-11T12:20:08.149Z,29.10
2018-01-11T12:21:10.899Z,30.80
2018-01-11T12:22:07.598Z,31.60
2018-01-11T12:23:07.638Z,32.00
2018-01-11T12:24:07.602Z,29.90
2018-01-11T12:25:07.584Z,27.20
2018-01-11T12:26:08.389Z,25.50
2018-01-11T12:27:08.187Z,26.70
2018-01-11T12:28:07.642Z,25.00
2018-01-11T12:29:07.665Z,25.40
2018-01-11T12:30:07.618Z,25.40
2018-01-11T12:31:08.195Z,24.40
2018-01-11T12:32:07.657Z,25.50
2018-01-11T12:33:07.712Z,25.30
2018-01-11T12:34:07.622Z,26.20
2018-01-11T12:35:07.636Z,24.80
2018-01-11T12:36:07.718Z,24.50
2018-01-11T12:37:07.666Z,24.90
2018-01-11T12:38:07.634Z,25.70
2018-01-11T12:39:07.736Z,25.40
2018-01-11T12:40:07.856Z,25.70
2018-01-11T12:41:07.667Z,25.40
2018-01-11T12:42:07.744Z,25.10
2018-01-11T12:43:07.861Z,25.10
2018-01-11T12:44:07.823Z,26.10
2018-01-11T12:45:07.703Z,26.00
2018-01-11T12:46:07.732Z,26.20
2018-01-11T12:47:07.703Z,25.90
2018-01-11T12:48:07.701Z,26.00
2018-01-11T12:49:07.746Z,25.90
2018-01-11T12:50:07.715Z,27.50
2018-01-11T12:52:07.751Z,26.00
2018-01-11T12:53:07.733Z,26.10
2018-01-11T12:54:08.260Z,27.10
2018-01-11T12:55:07.782Z,26.20